Time;durP1;ratioP1;P1;durP2;ratioP2;P2;SDS_P1;SDS_P2;PMS_P1;PMS_P2;Temp;Humidity;BMP_temperature;BMP_pressure;BME280_temperature;BME280_humidity;BME280_pressure;Samples;Min_cycle;Max_cycle;Signal;HPM_P1;HPM_P2
2023/06/22 00:00:47;;;;;;;1.67;1.57;;;25.40;87.60;;;;;;5093882;28;20505;-95
2023/06/22 00:03:15;;;;;;;1.63;1.53;;;25.40;87.60;;;;;;5093267;28;20487;-92
2023/06/22 00:05:42;;;;;;;2.13;1.70;;;25.50;87.70;;;;;;5093441;28;20812;-90
2023/06/22 00:08:09;;;;;;;1.63;1.53;;;25.40;87.60;;;;;;5093408;28;20795;-90
2023/06/22 00:10:36;;;;;;;1.80;1.70;;;25.40;87.60;;;;;;5093626;28;20458;-90
2023/06/22 00:13:03;;;;;;;1.77;1.67;;;25.40;87.60;;;;;;5096209;28;20567;-94
2023/06/22 00:15:29;;;;;;;1.67;1.57;;;25.50;87.70;;;;;;5097467;28;20442;-90
2023/06/22 00:17:58;;;;;;;1.77;1.67;;;25.40;87.60;;;;;;5097280;28;20448;-90
2023/06/22 00:20:28;;;;;;;1.50;1.40;;;25.40;87.60;;;;;;5097278;28;20523;-90
2023/06/22 00:22:56;;;;;;;1.70;1.60;;;25.50;87.70;;;;;;5097175;28;20439;-90
2023/06/22 00:25:23;;;;;;;1.80;1.70;;;25.50;87.60;;;;;;5096759;28;20483;-90
2023/06/22 00:27:50;;;;;;;1.63;1.53;;;25.40;87.60;;;;;;5097163;28;20475;-90
2023/06/22 00:30:17;;;;;;;2.23;2.03;;;25.40;87.50;;;;;;5097812;28;20442;-95
2023/06/22 00:32:44;;;;;;;2.30;2.10;;;25.40;87.50;;;;;;5098301;28;20439;-91
2023/06/22 00:35:12;;;;;;;2.00;1.90;;;25.50;87.60;;;;;;5100717;28;21038;-90
2023/06/22 00:37:41;;;;;;;1.83;1.73;;;25.40;87.60;;;;;;5096595;28;20444;-90
2023/06/22 00:40:11;;;;;;;2.00;1.90;;;25.40;87.60;;;;;;5096682;28;20505;-90
2023/06/22 00:42:39;;;;;;;1.60;1.50;;;25.40;87.60;;;;;;5096841;28;20456;-90
2023/06/22 00:45:07;;;;;;;1.50;1.40;;;25.40;87.50;;;;;;5096224;28;20482;-90
2023/06/22 00:47:35;;;;;;;1.47;1.37;;;25.40;87.50;;;;;;5096260;28;20535;-90
2023/06/22 00:50:03;;;;;;;1.60;1.50;;;25.50;87.60;;;;;;5096483;28;20436;-90
2023/06/22 00:52:33;;;;;;;1.80;1.53;;;25.40;87.50;;;;;;5096382;28;20450;-94
2023/06/22 00:55:03;;;;;;;1.50;1.40;;;25.40;87.50;;;;;;5096543;28;20446;-90
2023/06/22 00:57:30;;;;;;;1.40;1.30;;;25.40;87.60;;;;;;5096246;28;20470;-94
2023/06/22 00:59:57;;;;;;;1.60;1.50;;;25.40;87.60;;;;;;5096642;28;20441;-94
2023/06/22 01:02:24;;;;;;;1.70;1.60;;;25.40;87.60;;;;;;5096307;28;20956;-91
2023/06/22 01:04:50;;;;;;;1.80;1.70;;;25.40;87.60;;;;;;5095986;28;20538;-90
2023/06/22 01:07:27;;;;;;;1.93;1.80;;;25.40;88.40;;;;;;5096162;28;20450;-91
2023/06/22 01:10:00;;;;;;;1.60;1.50;;;25.40;87.60;;;;;;5096153;28;20528;-90
2023/06/22 01:12:32;;;;;;;1.40;1.30;;;25.40;87.60;;;;;;5095891;28;20555;-95
2023/06/22 01:15:05;;;;;;;1.93;1.83;;;25.40;87.60;;;;;;5095801;28;20443;-90
2023/06/22 01:17:33;;;;;;;1.70;1.60;;;25.40;87.60;;;;;;5095919;28;20440;-90
2023/06/22 01:20:04;;;;;;;1.67;1.57;;;25.40;87.60;;;;;;5095712;28;20964;-89
2023/06/22 01:22:37;;;;;;;1.80;1.70;;;25.40;87.60;;;;;;5095327;28;21111;-91
2023/06/22 01:25:10;;;;;;;1.70;1.60;;;25.40;87.60;;;;;;5095725;28;20850;-90
2023/06/22 01:27:48;;;;;;;1.50;1.40;;;25.40;87.60;;;;;;5095769;28;20559;-90
2023/06/22 01:30:20;;;;;;;1.97;1.87;;;25.40;87.60;;;;;;5095544;28;20533;-90
2023/06/22 01:32:47;;;;;;;1.30;1.20;;;25.40;87.60;;;;;;5095505;28;20442;-90
2023/06/22 01:35:16;;;;;;;1.70;1.60;;;25.40;87.60;;;;;;5095459;28;20526;-91
2023/06/22 01:37:43;;;;;;;1.73;1.57;;;25.40;87.60;;;;;;5095707;28;20468;-95
2023/06/22 01:40:11;;;;;;;1.60;1.50;;;25.40;87.60;;;;;;5095574;28;20461;-90
2023/06/22 01:42:38;;;;;;;2.50;1.40;;;25.40;87.60;;;;;;5095708;28;20502;-90
2023/06/22 01:45:07;;;;;;;1.50;1.40;;;25.40;87.50;;;;;;5095227;28;20477;-90
2023/06/22 01:47:36;;;;;;;1.50;1.40;;;25.40;87.60;;;;;;5095313;28;20443;-90
2023/06/22 01:50:03;;;;;;;1.70;1.60;;;25.40;87.60;;;;;;5095108;28;20438;-91
2023/06/22 01:52:30;;;;;;;1.30;1.20;;;25.40;87.60;;;;;;5095195;28;20931;-90
2023/06/22 01:54:57;;;;;;;1.80;1.70;;;25.40;87.60;;;;;;5095060;28;20514;-94
2023/06/22 01:57:25;;;;;;;1.73;1.63;;;25.40;87.60;;;;;;5095202;28;20567;-95
2023/06/22 02:00:01;;;;;;;1.30;1.20;;;25.40;87.60;;;;;;5095170;28;20448;-91
2023/06/22 02:02:34;;;;;;;1.47;1.37;;;25.40;87.60;;;;;;5095079;28;20444;-90
2023/06/22 02:05:06;;;;;;;1.47;1.37;;;25.40;87.60;;;;;;5094952;28;20569;-91
2023/06/22 02:07:40;;;;;;;1.47;1.37;;;25.40;87.60;;;;;;5094929;28;20475;-90
2023/06/22 02:10:12;;;;;;;1.57;1.47;;;25.40;87.60;;;;;;5095875;28;20532;-90
2023/06/22 02:12:40;;;;;;;1.50;1.40;;;25.40;87.60;;;;;;5094956;28;20966;-90
2023/06/22 02:15:08;;;;;;;1.40;1.30;;;25.40;87.60;;;;;;5095004;28;20439;-96
2023/06/22 02:17:35;;;;;;;1.30;1.20;;;25.40;87.60;;;;;;5095023;28;20440;-91
2023/06/22 02:20:08;;;;;;;1.40;1.30;;;25.40;87.60;;;;;;5094447;28;20437;-94
2023/06/22 02:22:34;;;;;;;1.43;1.33;;;25.40;87.60;;;;;;5094721;28;20484;-90
2023/06/22 02:25:01;;;;;;;1.50;1.40;;;25.40;87.60;;;;;;5094673;28;20571;-90
2023/06/22 02:27:28;;;;;;;1.60;1.50;;;25.40;87.60;;;;;;5094265;28;20570;-90
2023/06/22 02:29:55;;;;;;;1.47;1.37;;;25.40;87.60;;;;;;5094551;28;20472;-90
2023/06/22 02:32:22;;;;;;;1.40;1.30;;;25.40;87.60;;;;;;5094334;28;20527;-95
2023/06/22 02:34:49;;;;;;;1.63;1.53;;;25.40;87.60;;;;;;5093803;28;20532;-90
2023/06/22 02:37:17;;;;;;;1.70;1.60;;;25.40;87.60;;;;;;5094297;28;20439;-90
2023/06/22 02:39:44;;;;;;;1.30;1.17;;;25.40;87.70;;;;;;5094412;28;20446;-90
2023/06/22 02:42:11;;;;;;;1.57;1.47;;;25.40;87.60;;;;;;5094205;28;20496;-90
2023/06/22 02:44:38;;;;;;;1.67;1.57;;;25.40;87.60;;;;;;5094080;28;20483;-90
2023/06/22 02:47:05;;;;;;;1.60;1.47;;;25.40;87.60;;;;;;5094155;28;20445;-91
2023/06/22 02:49:32;;;;;;;1.33;1.23;;;25.40;87.60;;;;;;5094329;28;20446;-90
2023/06/22 02:51:59;;;;;;;1.40;1.30;;;25.40;87.60;;;;;;5094205;28;20519;-90
2023/06/22 02:54:27;;;;;;;1.60;1.50;;;25.40;87.70;;;;;;5094248;28;20539;-95
2023/06/22 02:56:54;;;;;;;1.57;1.30;;;25.40;87.60;;;;;;5094462;28;20472;-90
2023/06/22 02:59:23;;;;;;;1.57;1.47;;;25.40;88.50;;;;;;5094332;28;20437;-90
2023/06/22 03:01:50;;;;;;;1.30;1.20;;;25.40;87.70;;;;;;5093714;28;20887;-90
2023/06/22 03:04:17;;;;;;;1.50;1.40;;;25.40;87.70;;;;;;5093891;28;20495;-90
2023/06/22 03:06:43;;;;;;;1.40;1.30;;;25.40;87.70;;;;;;5093770;28;20432;-95
2023/06/22 03:09:10;;;;;;;1.70;1.60;;;25.40;88.10;;;;;;5094103;28;20538;-90
2023/06/22 03:11:39;;;;;;;1.30;1.10;;;25.40;87.80;;;;;;5093942;28;20462;-90
2023/06/22 03:14:05;;;;;;;1.40;1.30;;;25.40;87.70;;;;;;5093931;28;20535;-90
2023/06/22 03:16:33;;;;;;;1.63;1.53;;;25.40;87.70;;;;;;5093813;28;20462;-90
2023/06/22 03:19:00;;;;;;;1.73;1.40;;;25.40;87.60;;;;;;5094137;28;20483;-90
2023/06/22 03:21:29;;;;;;;1.70;1.60;;;25.40;87.60;;;;;;5093438;28;20531;-90
2023/06/22 03:23:56;;;;;;;1.70;1.60;;;25.40;87.60;;;;;;5093721;28;20955;-96
2023/06/22 03:26:26;;;;;;;1.70;1.60;;;25.40;87.60;;;;;;5093490;28;20982;-89
2023/06/22 03:28:54;;;;;;;1.60;1.50;;;25.40;87.60;;;;;;5093774;28;20843;-90
2023/06/22 03:31:21;;;;;;;1.60;1.50;;;25.40;87.70;;;;;;5093556;28;20451;-90
2023/06/22 03:33:48;;;;;;;1.67;1.57;;;25.40;87.60;;;;;;5093664;28;20454;-94
2023/06/22 03:36:18;;;;;;;1.53;1.43;;;25.40;87.90;;;;;;5094250;28;20462;-89
2023/06/22 03:38:45;;;;;;;1.73;1.63;;;25.40;87.90;;;;;;5093485;28;20493;-90
2023/06/22 03:41:12;;;;;;;1.43;1.33;;;25.40;87.80;;;;;;5093510;28;20440;-90
2023/06/22 03:43:39;;;;;;;2.07;1.97;;;25.40;87.90;;;;;;5093541;28;20452;-91
2023/06/22 03:46:07;;;;;;;1.77;1.67;;;25.40;87.80;;;;;;5095149;28;20498;-95
2023/06/22 03:48:34;;;;;;;1.50;1.40;;;25.40;87.90;;;;;;5097582;28;20443;-91
2023/06/22 03:51:02;;;;;;;1.60;1.50;;;25.40;87.90;;;;;;5097710;28;20642;-90
2023/06/22 03:53:29;;;;;;;1.40;1.30;;;25.40;87.90;;;;;;5097384;28;20445;-90
2023/06/22 03:55:56;;;;;;;1.57;1.47;;;25.40;88.70;;;;;;5097558;28;20443;-90
2023/06/22 03:58:23;;;;;;;1.83;1.73;;;25.40;88.70;;;;;;5097387;28;20463;-90
2023/06/22 04:00:52;;;;;;;1.50;1.33;;;25.40;87.90;;;;;;5097443;28;20450;-90
2023/06/22 04:03:20;;;;;;;1.60;1.50;;;25.40;88.10;;;;;;5097270;28;20541;-95
2023/06/22 04:05:47;;;;;;;1.57;1.47;;;25.40;88.10;;;;;;5097122;28;20544;-90
2023/06/22 04:08:15;;;;;;;1.77;1.67;;;25.40;88.10;;;;;;5097226;28;20437;-95
2023/06/22 04:10:42;;;;;;;1.50;1.40;;;25.40;88.10;;;;;;5097337;28;20844;-90
2023/06/22 04:13:08;;;;;;;1.50;1.37;;;25.40;88.20;;;;;;5096893;28;20567;-91
2023/06/22 04:15:35;;;;;;;1.77;1.63;;;25.40;88.10;;;;;;5097630;28;20479;-95
2023/06/22 04:18:02;;;;;;;1.80;1.70;;;25.40;88.10;;;;;;5097855;28;20518;-95
2023/06/22 04:20:31;;;;;;;1.50;1.40;;;25.40;88.10;;;;;;5097455;28;20535;-93
2023/06/22 04:22:58;;;;;;;1.53;1.43;;;25.40;88.20;;;;;;5097410;28;20446;-90
2023/06/22 04:25:25;;;;;;;1.80;1.70;;;25.40;88.20;;;;;;5097543;28;20520;-95
2023/06/22 04:27:52;;;;;;;1.97;1.87;;;25.40;88.10;;;;;;5096688;28;20456;-90
2023/06/22 04:30:19;;;;;;;1.80;1.70;;;25.40;88.20;;;;;;5096787;28;20543;-96
2023/06/22 04:32:56;;;;;;;1.83;1.73;;;25.40;88.10;;;;;;5096905;28;20532;-90
2023/06/22 04:35:23;;;;;;;1.70;1.60;;;25.40;88.10;;;;;;5097124;28;20534;-89
2023/06/22 04:37:54;;;;;;;1.80;1.70;;;25.40;88.20;;;;;;5096842;28;20447;-90
2023/06/22 04:40:22;;;;;;;2.57;2.37;;;25.40;88.20;;;;;;5097594;28;20445;-91
2023/06/22 04:42:52;;;;;;;1.83;1.73;;;25.40;88.30;;;;;;5097413;28;20450;-95
2023/06/22 04:45:20;;;;;;;1.90;1.80;;;25.40;88.20;;;;;;5096686;28;20991;-91
2023/06/22 04:47:47;;;;;;;1.73;1.63;;;25.40;88.30;;;;;;5096522;28;20800;-96
2023/06/22 04:50:14;;;;;;;1.50;1.40;;;25.40;88.20;;;;;;5096589;28;20438;-90
2023/06/22 04:52:40;;;;;;;1.57;1.47;;;25.40;88.20;;;;;;5097455;28;20476;-90
2023/06/22 04:55:09;;;;;;;1.97;1.87;;;25.40;88.30;;;;;;5097235;28;20524;-91
2023/06/22 04:57:39;;;;;;;1.50;1.40;;;25.40;88.30;;;;;;5095451;28;20547;-95
2023/06/22 05:00:12;;;;;;;1.87;1.77;;;25.40;88.30;;;;;;5096378;28;20440;-90
2023/06/22 05:02:39;;;;;;;1.87;1.77;;;25.40;88.30;;;;;;5096220;28;20927;-95
2023/06/22 05:05:07;;;;;;;1.80;1.70;;;25.40;88.40;;;;;;5096021;28;20479;-90
2023/06/22 05:07:34;;;;;;;1.70;1.60;;;25.40;88.40;;;;;;5096315;28;20444;-91
2023/06/22 05:10:01;;;;;;;2.40;2.20;;;25.40;88.40;;;;;;5096395;28;20621;-90
2023/06/22 05:12:31;;;;;;;1.67;1.57;;;25.40;88.30;;;;;;5095935;28;20511;-90
2023/06/22 05:14:58;;;;;;;1.97;1.87;;;25.40;88.20;;;;;;5095975;28;20539;-90
2023/06/22 05:17:25;;;;;;;1.70;1.60;;;25.40;88.30;;;;;;5096017;28;20515;-91
2023/06/22 05:19:52;;;;;;;1.50;1.40;;;25.40;88.30;;;;;;5096057;28;20449;-91
2023/06/22 05:22:19;;;;;;;2.07;1.97;;;25.40;88.20;;;;;;5095923;28;20537;-90
2023/06/22 05:24:46;;;;;;;2.17;1.97;;;25.40;88.30;;;;;;5095638;28;20505;-91
2023/06/22 05:27:13;;;;;;;1.80;1.70;;;25.40;88.40;;;;;;5096046;28;20558;-90
2023/06/22 05:29:42;;;;;;;1.67;1.57;;;25.40;88.40;;;;;;5095785;28;20530;-95
2023/06/22 05:32:09;;;;;;;1.87;1.77;;;25.40;88.30;;;;;;5095710;28;20481;-95
2023/06/22 05:34:36;;;;;;;2.10;1.90;;;25.30;88.20;;;;;;5095753;28;20480;-91
2023/06/22 05:37:03;;;;;;;1.80;1.70;;;25.40;88.30;;;;;;5095620;28;20954;-90
2023/06/22 05:39:30;;;;;;;1.93;1.83;;;25.40;88.30;;;;;;5095705;28;20440;-91
2023/06/22 05:41:57;;;;;;;2.00;1.90;;;25.30;88.10;;;;;;5095531;28;20518;-90
2023/06/22 05:44:24;;;;;;;1.70;1.60;;;25.40;88.50;;;;;;5095421;28;20450;-91
2023/06/22 05:46:52;;;;;;;1.70;1.60;;;25.40;88.50;;;;;;5095490;28;20488;-90
2023/06/22 05:49:19;;;;;;;1.80;1.70;;;25.40;88.50;;;;;;5095523;28;20447;-90
2023/06/22 05:51:46;;;;;;;1.60;1.50;;;25.40;88.40;;;;;;5095314;28;20538;-90
2023/06/22 05:54:15;;;;;;;1.60;1.50;;;25.40;88.50;;;;;;5095262;28;20519;-90
2023/06/22 05:56:42;;;;;;;1.70;1.60;;;25.40;88.50;;;;;;5095329;28;20443;-91
2023/06/22 05:59:09;;;;;;;1.63;1.53;;;25.30;88.50;;;;;;5095062;28;20823;-94
2023/06/22 06:01:36;;;;;;;1.87;1.77;;;25.30;89.50;;;;;;5095039;28;20488;-91
2023/06/22 06:04:05;;;;;;;2.07;1.87;;;25.40;88.50;;;;;;5077469;28;20543;-90
2023/06/22 06:06:31;;;;;;;1.97;1.77;;;25.40;88.60;;;;;;5094847;28;20494;-90
2023/06/22 06:08:59;;;;;;;1.93;1.83;;;25.30;88.60;;;;;;5095080;28;20436;-91
2023/06/22 06:11:26;;;;;;;1.60;1.50;;;25.40;88.60;;;;;;5095252;28;20435;-90
2023/06/22 06:13:53;;;;;;;1.50;1.40;;;25.40;88.80;;;;;;5094666;28;20479;-95
2023/06/22 06:16:20;;;;;;;2.10;2.00;;;25.40;88.70;;;;;;5094533;28;20447;-90
2023/06/22 06:18:48;;;;;;;2.37;2.17;;;25.40;88.60;;;;;;5095374;28;20447;-90
2023/06/22 06:21:16;;;;;;;1.63;1.53;;;25.30;88.50;;;;;;5094810;28;20436;-90
2023/06/22 06:23:44;;;;;;;2.13;2.03;;;25.40;88.60;;;;;;5094528;28;20435;-90
2023/06/22 06:26:10;;;;;;;3.37;1.97;;;25.40;88.60;;;;;;5094535;28;20577;-90
2023/06/22 06:28:37;;;;;;;1.47;1.37;;;25.30;88.60;;;;;;5094366;28;20464;-90
2023/06/22 06:31:06;;;;;;;1.70;1.60;;;25.30;88.40;;;;;;5094441;28;20483;-91
2023/06/22 06:33:33;;;;;;;2.20;2.00;;;25.40;88.70;;;;;;5094728;28;20447;-91
2023/06/22 06:36:03;;;;;;;1.63;1.53;;;25.40;88.60;;;;;;5094191;28;20484;-91
2023/06/22 06:38:31;;;;;;;1.60;1.50;;;25.30;88.50;;;;;;5094339;28;20436;-94
2023/06/22 06:40:58;;;;;;;2.00;1.90;;;25.40;88.60;;;;;;5094343;28;20436;-95
2023/06/22 06:43:25;;;;;;;1.90;1.80;;;25.40;88.50;;;;;;5094477;28;20524;-90
2023/06/22 06:45:52;;;;;;;2.00;1.90;;;25.40;88.50;;;;;;5094136;28;20479;-91
2023/06/22 06:48:19;;;;;;;1.60;1.50;;;25.40;88.50;;;;;;5094249;28;20540;-91
2023/06/22 06:50:46;;;;;;;1.70;1.60;;;25.30;88.30;;;;;;5076046;28;20433;-91
2023/06/22 06:53:13;;;;;;;1.80;1.70;;;25.40;88.40;;;;;;5094331;28;20767;-95
2023/06/22 06:55:41;;;;;;;1.70;1.60;;;25.40;88.30;;;;;;5094142;28;20526;-91
2023/06/22 06:58:09;;;;;;;2.00;1.90;;;25.30;88.40;;;;;;5094388;28;20477;-95
2023/06/22 07:00:36;;;;;;;2.00;1.90;;;25.30;88.30;;;;;;5093859;28;20448;-91
2023/06/22 07:03:03;;;;;;;1.90;1.80;;;25.30;88.20;;;;;;5093861;28;20529;-91
2023/06/22 07:05:30;;;;;;;2.23;2.03;;;25.30;88.00;;;;;;5093910;28;20469;-90
2023/06/22 07:07:57;;;;;;;2.07;1.97;;;25.40;88.20;;;;;;5093947;28;20994;-91
2023/06/22 07:10:24;;;;;;;1.73;1.63;;;25.40;88.10;;;;;;5094037;28;20543;-91
2023/06/22 07:12:52;;;;;;;1.83;1.73;;;25.30;88.20;;;;;;5093819;28;20986;-91
2023/06/22 07:15:19;;;;;;;1.80;1.70;;;25.30;88.20;;;;;;5093963;28;20528;-91
2023/06/22 07:17:46;;;;;;;1.63;1.50;;;25.40;88.30;;;;;;5094342;28;20439;-91
2023/06/22 07:20:13;;;;;;;1.63;1.50;;;25.40;88.30;;;;;;5093277;28;20442;-91
2023/06/22 07:22:42;;;;;;;2.17;2.03;;;25.40;88.20;;;;;;5093837;28;20447;-91
2023/06/22 07:25:09;;;;;;;2.07;1.97;;;25.30;88.20;;;;;;5093682;28;20823;-95
2023/06/22 07:27:38;;;;;;;1.60;1.50;;;25.40;88.20;;;;;;5093830;28;20503;-93
2023/06/22 07:30:08;;;;;;;1.67;1.57;;;25.40;88.90;;;;;;5093619;28;20436;-92
2023/06/22 07:32:35;;;;;;;1.70;1.60;;;25.30;88.00;;;;;;5093685;28;20450;-91
2023/06/22 07:35:02;;;;;;;1.57;1.47;;;25.30;88.00;;;;;;5093534;28;20534;-91
2023/06/22 07:37:29;;;;;;;1.53;1.43;;;25.30;87.90;;;;;;5093508;28;20451;-91
2023/06/22 07:39:58;;;;;;;1.60;1.50;;;25.40;87.90;;;;;;5093523;28;20791;-91
2023/06/22 07:42:25;;;;;;;2.00;1.90;;;25.40;87.90;;;;;;5093506;28;20872;-95
2023/06/22 07:44:52;;;;;;;1.90;1.80;;;25.30;87.70;;;;;;5093471;28;20461;-91
2023/06/22 07:47:24;;;;;;;1.83;1.73;;;25.30;87.70;;;;;;5093417;28;20485;-96
2023/06/22 07:49:51;;;;;;;2.07;1.97;;;25.30;87.80;;;;;;5093799;28;20535;-91
2023/06/22 07:52:18;;;;;;;1.73;1.63;;;25.30;87.70;;;;;;5093517;28;20505;-94
2023/06/22 07:54:45;;;;;;;1.63;1.53;;;25.40;88.60;;;;;;5093347;28;20440;-91
2023/06/22 07:57:12;;;;;;;2.03;1.93;;;25.30;87.60;;;;;;5093266;28;20559;-91
2023/06/22 07:59:39;;;;;;;1.80;1.70;;;25.30;87.60;;;;;;5093350;28;20469;-91
2023/06/22 08:02:08;;;;;;;1.90;1.80;;;25.30;87.60;;;;;;5094403;28;20809;-91
2023/06/22 08:04:37;;;;;;;2.00;1.90;;;25.30;87.60;;;;;;5093475;28;20440;-96
2023/06/22 08:07:04;;;;;;;1.70;1.60;;;25.40;87.70;;;;;;5093012;28;20487;-91
2023/06/22 08:09:33;;;;;;;1.93;1.83;;;25.40;87.60;;;;;;5093225;28;20922;-94
2023/06/22 08:12:00;;;;;;;2.23;2.03;;;25.40;87.60;;;;;;5093002;28;20564;-90
2023/06/22 08:14:28;;;;;;;1.80;1.70;;;25.40;87.70;;;;;;5093751;28;20419;-95
2023/06/22 08:16:54;;;;;;;1.87;1.77;;;25.40;87.60;;;;;;5093405;28;20530;-91
2023/06/22 08:19:21;;;;;;;1.60;1.50;;;25.30;87.60;;;;;;5093100;28;20443;-92
2023/06/22 08:21:50;;;;;;;2.03;1.93;;;25.30;87.40;;;;;;5093209;28;20427;-96
2023/06/22 08:24:16;;;;;;;2.00;1.90;;;25.40;87.60;;;;;;5092982;28;21013;-91
2023/06/22 08:26:43;;;;;;;1.57;1.47;;;25.30;87.60;;;;;;5093044;28;20580;-91
2023/06/22 08:29:10;;;;;;;2.07;1.97;;;25.40;87.70;;;;;;5093156;28;20466;-91
2023/06/22 08:31:37;;;;;;;2.00;1.90;;;25.30;87.60;;;;;;5093807;28;20456;-96
2023/06/22 08:34:04;;;;;;;1.77;1.67;;;25.30;87.50;;;;;;5096132;28;20449;-91
2023/06/22 08:36:32;;;;;;;1.90;1.53;;;25.30;87.50;;;;;;5097553;28;20545;-95
2023/06/22 08:39:02;;;;;;;1.70;1.60;;;25.30;87.50;;;;;;5096982;28;20535;-95
2023/06/22 08:41:29;;;;;;;1.77;1.67;;;25.40;87.60;;;;;;5097482;28;20475;-95
2023/06/22 08:43:57;;;;;;;2.27;2.17;;;25.40;87.40;;;;;;5097305;28;20846;-91
2023/06/22 08:46:29;;;;;;;2.20;2.03;;;25.40;87.60;;;;;;5096803;28;20475;-95
2023/06/22 08:48:57;;;;;;;2.27;2.07;;;25.40;88.30;;;;;;5096672;28;20443;-95
2023/06/22 08:51:23;;;;;;;2.00;1.90;;;25.40;87.70;;;;;;5096262;28;20784;-91
2023/06/22 08:53:50;;;;;;;1.70;1.60;;;25.40;87.60;;;;;;5096737;28;20548;-91
2023/06/22 08:56:19;;;;;;;1.80;1.70;;;25.40;87.70;;;;;;5096223;28;20515;-92
2023/06/22 08:58:45;;;;;;;2.00;1.90;;;25.40;87.60;;;;;;5096152;28;20472;-96
2023/06/22 09:01:12;;;;;;;2.37;2.17;;;25.30;87.50;;;;;;5096186;28;20542;-92
2023/06/22 09:03:39;;;;;;;2.17;2.07;;;25.40;87.60;;;;;;5096247;28;20429;-91
2023/06/22 09:06:06;;;;;;;2.30;2.20;;;25.40;87.60;;;;;;5095894;28;20808;-95
2023/06/22 09:08:33;;;;;;;2.53;1.80;;;25.40;87.60;;;;;;5096525;28;20538;-91
2023/06/22 09:11:00;;;;;;;1.90;1.80;;;25.40;87.50;;;;;;5097563;28;20448;-95
2023/06/22 09:13:31;;;;;;;2.07;1.97;;;25.40;87.60;;;;;;5095874;28;20471;-95
2023/06/22 09:15:58;;;;;;;2.20;2.00;;;25.40;87.50;;;;;;5096047;28;20482;-91
2023/06/22 09:18:25;;;;;;;1.73;1.63;;;25.40;87.80;;;;;;5096024;28;20477;-91
2023/06/22 09:20:52;;;;;;;2.03;1.93;;;25.40;87.60;;;;;;5096037;28;20456;-91
2023/06/22 09:23:19;;;;;;;2.27;2.17;;;25.40;87.60;;;;;;5095581;28;20435;-91
2023/06/22 09:25:47;;;;;;;2.23;2.13;;;25.40;87.70;;;;;;5095660;28;20910;-91
2023/06/22 09:28:14;;;;;;;2.20;2.10;;;25.40;87.70;;;;;;5095621;28;20495;-91
2023/06/22 09:30:44;;;;;;;2.00;1.90;;;25.40;87.60;;;;;;5095801;28;20449;-91
2023/06/22 09:33:11;;;;;;;2.07;1.97;;;25.40;87.60;;;;;;5095965;28;20436;-91
2023/06/22 09:35:38;;;;;;;1.70;1.60;;;25.40;87.60;;;;;;5095554;28;20437;-92
2023/06/22 09:38:05;;;;;;;1.97;1.87;;;25.40;87.60;;;;;;5095157;28;20464;-91
2023/06/22 09:40:35;;;;;;;1.63;1.53;;;25.40;87.70;;;;;;5095428;28;20433;-91
2023/06/22 09:43:02;;;;;;;1.90;1.80;;;25.40;87.70;;;;;;5095432;28;20441;-91
2023/06/22 09:45:28;;;;;;;2.13;2.03;;;25.40;87.60;;;;;;5095394;28;20474;-91
2023/06/22 09:47:57;;;;;;;2.20;2.10;;;25.40;87.60;;;;;;5095232;28;20582;-91
2023/06/22 09:50:24;;;;;;;2.30;2.10;;;25.40;87.60;;;;;;5095114;28;20535;-91
2023/06/22 09:52:54;;;;;;;2.10;1.90;;;25.40;87.70;;;;;;5095028;28;20440;-95
2023/06/22 09:55:21;;;;;;;2.47;2.27;;;25.40;87.70;;;;;;5095301;28;20444;-93
2023/06/22 09:57:48;;;;;;;2.00;1.90;;;25.40;87.60;;;;;;5095182;28;20459;-91
2023/06/22 10:00:16;;;;;;;2.20;2.10;;;25.40;87.60;;;;;;5095220;28;20631;-91
2023/06/22 10:02:43;;;;;;;2.30;2.07;;;25.40;87.60;;;;;;5095247;28;20536;-91
2023/06/22 10:05:11;;;;;;;2.80;2.60;;;25.40;87.70;;;;;;5095285;28;20435;-91
2023/06/22 10:07:42;;;;;;;2.17;1.97;;;25.40;87.80;;;;;;5094974;28;20486;-90
2023/06/22 10:10:09;;;;;;;1.77;1.67;;;25.40;87.90;;;;;;5094779;28;20919;-95
2023/06/22 10:12:36;;;;;;;2.13;2.03;;;25.40;87.90;;;;;;5094905;28;20554;-91
2023/06/22 10:15:04;;;;;;;2.00;1.90;;;25.40;87.80;;;;;;5094643;28;20554;-91
2023/06/22 10:17:31;;;;;;;2.30;2.10;;;25.40;87.80;;;;;;5094817;28;20860;-92
2023/06/22 10:19:58;;;;;;;2.90;2.70;;;25.40;87.90;;;;;;5094607;28;20501;-91
2023/06/22 10:22:26;;;;;;;2.30;2.20;;;25.40;87.90;;;;;;5094568;28;20467;-91
2023/06/22 10:24:53;;;;;;;2.53;2.33;;;25.40;87.90;;;;;;5094575;28;20987;-91
2023/06/22 10:27:20;;;;;;;2.20;2.10;;;25.40;87.90;;;;;;5094270;28;21057;-91
2023/06/22 10:29:47;;;;;;;2.90;2.70;;;25.40;87.90;;;;;;5094376;28;20535;-91
2023/06/22 10:32:14;;;;;;;2.50;2.30;;;25.40;88.00;;;;;;5094729;28;20444;-95
2023/06/22 10:34:40;;;;;;;2.33;2.23;;;25.40;88.00;;;;;;5094276;28;20445;-94
2023/06/22 10:37:07;;;;;;;2.87;2.67;;;25.40;88.00;;;;;;5094323;28;20528;-92
2023/06/22 10:39:36;;;;;;;2.00;1.90;;;25.40;88.00;;;;;;5094823;28;20539;-92
2023/06/22 10:42:03;;;;;;;2.60;2.40;;;25.40;88.00;;;;;;5094213;28;20536;-95
2023/06/22 10:44:29;;;;;;;2.90;2.70;;;25.40;88.90;;;;;;5094378;28;20560;-95
2023/06/22 10:46:56;;;;;;;2.60;2.40;;;25.40;88.00;;;;;;5094059;28;20601;-91
2023/06/22 10:49:23;;;;;;;2.60;2.50;;;25.40;88.20;;;;;;5094257;28;20468;-92
2023/06/22 10:51:50;;;;;;;2.77;2.57;;;25.40;88.20;;;;;;5094082;28;20869;-91
2023/06/22 10:54:18;;;;;;;2.03;1.90;;;25.40;88.20;;;;;;5094004;28;20949;-94
2023/06/22 10:56:46;;;;;;;2.60;2.40;;;25.40;88.20;;;;;;5093200;28;20453;-91
2023/06/22 10:59:13;;;;;;;2.40;2.30;;;25.40;88.20;;;;;;5094075;28;20791;-91
2023/06/22 11:01:40;;;;;;;2.87;2.67;;;25.40;88.20;;;;;;5093799;28;20536;-92
2023/06/22 11:04:06;;;;;;;2.03;1.93;;;25.40;88.30;;;;;;5093900;28;20448;-91
2023/06/22 11:06:33;;;;;;;2.73;2.53;;;25.40;88.30;;;;;;5094133;28;20446;-92
2023/06/22 11:09:00;;;;;;;2.17;2.07;;;25.40;88.30;;;;;;5093865;28;20463;-92
2023/06/22 11:11:27;;;;;;;2.30;2.20;;;25.40;88.20;;;;;;5094029;28;20439;-96
2023/06/22 11:13:55;;;;;;;2.43;2.23;;;25.40;88.40;;;;;;5093303;28;20855;-91
2023/06/22 11:16:23;;;;;;;2.83;2.63;;;25.40;88.40;;;;;;5093648;28;20500;-92
2023/06/22 11:18:50;;;;;;;2.57;2.37;;;25.40;88.30;;;;;;5094099;28;20444;-94
2023/06/22 11:21:17;;;;;;;2.60;2.40;;;25.40;88.30;;;;;;5093544;28;20979;-95
2023/06/22 11:23:44;;;;;;;2.40;2.23;;;25.40;88.40;;;;;;5094019;28;20869;-91
2023/06/22 11:26:11;;;;;;;2.73;2.53;;;25.40;88.50;;;;;;5093578;28;20438;-91
2023/06/22 11:28:37;;;;;;;2.50;2.30;;;25.40;88.40;;;;;;5093341;28;20572;-92
2023/06/22 11:31:07;;;;;;;2.43;2.33;;;25.40;88.50;;;;;;5093459;28;20480;-91
2023/06/22 11:33:33;;;;;;;2.20;2.10;;;25.40;88.50;;;;;;5093797;28;20772;-91
2023/06/22 11:36:01;;;;;;;3.17;2.87;;;25.40;88.40;;;;;;5093762;28;20530;-93
2023/06/22 11:38:27;;;;;;;2.30;2.20;;;25.40;88.40;;;;;;5093761;28;20471;-91
2023/06/22 11:40:54;;;;;;;2.40;2.20;;;25.40;88.50;;;;;;5075746;28;20439;-91
2023/06/22 11:43:21;;;;;;;2.60;2.40;;;25.40;88.60;;;;;;5093862;28;20446;-95
2023/06/22 11:45:48;;;;;;;3.00;2.80;;;25.40;88.50;;;;;;5093840;28;20553;-90
2023/06/22 11:48:16;;;;;;;2.87;2.67;;;25.40;88.50;;;;;;5094058;28;20902;-95
2023/06/22 11:50:43;;;;;;;2.60;2.47;;;25.40;88.40;;;;;;5093739;28;20442;-91
2023/06/22 11:53:10;;;;;;;2.20;2.10;;;25.40;88.30;;;;;;5093934;28;20538;-91
2023/06/22 11:55:37;;;;;;;2.40;2.20;;;25.40;88.40;;;;;;5094003;28;20531;-94
2023/06/22 11:58:05;;;;;;;2.80;2.60;;;25.40;88.50;;;;;;5093775;28;20548;-95
2023/06/22 12:00:32;;;;;;;2.10;2.00;;;25.40;88.50;;;;;;5094091;28;20439;-91
2023/06/22 12:02:59;;;;;;;2.60;2.40;;;25.40;88.40;;;;;;5094348;28;20438;-91
2023/06/22 12:05:27;;;;;;;2.70;2.50;;;25.40;88.40;;;;;;5094045;28;20520;-91
2023/06/22 12:07:55;;;;;;;2.40;2.30;;;25.50;88.50;;;;;;5096209;28;20472;-91
2023/06/22 12:10:22;;;;;;;2.50;2.30;;;25.40;88.30;;;;;;5097084;28;20946;-91
2023/06/22 12:12:49;;;;;;;3.00;2.80;;;25.40;88.30;;;;;;5097056;28;20516;-92
2023/06/22 12:15:16;;;;;;;2.50;2.37;;;25.40;89.20;;;;;;5097277;28;20444;-94
2023/06/22 12:17:42;;;;;;;3.13;2.93;;;25.40;88.30;;;;;;5096917;28;20596;-91
2023/06/22 12:20:10;;;;;;;2.53;2.33;;;25.40;88.40;;;;;;5097555;28;20922;-91
2023/06/22 12:22:38;;;;;;;2.70;2.53;;;25.40;88.50;;;;;;5097011;28;20530;-91
2023/06/22 12:25:06;;;;;;;2.70;2.60;;;25.40;88.30;;;;;;5097036;28;20447;-95
2023/06/22 12:27:33;;;;;;;2.37;2.27;;;25.40;88.30;;;;;;5096658;28;20491;-91
2023/06/22 12:30:00;;;;;;;2.60;2.40;;;25.40;88.30;;;;;;5096791;28;20532;-91
2023/06/22 12:32:26;;;;;;;2.70;2.23;;;25.40;88.40;;;;;;5097173;28;20533;-93
2023/06/22 12:34:53;;;;;;;2.73;2.53;;;25.40;88.30;;;;;;5096462;28;20454;-91
2023/06/22 12:37:20;;;;;;;2.77;2.57;;;25.40;88.30;;;;;;5096677;28;20523;-91
2023/06/22 12:39:49;;;;;;;2.93;2.73;;;25.40;88.30;;;;;;5096720;28;20478;-95
2023/06/22 12:42:17;;;;;;;2.27;2.13;;;25.40;88.30;;;;;;5097004;28;20542;-92
2023/06/22 12:44:44;;;;;;;2.20;2.10;;;25.40;88.30;;;;;;5096376;28;20446;-95
2023/06/22 12:47:20;;;;;;;2.70;2.50;;;25.40;88.40;;;;;;5096597;28;20432;-94
2023/06/22 12:49:46;;;;;;;2.60;2.40;;;25.40;88.40;;;;;;5096390;28;20492;-95